Terminal Aerodrome Forecast
Issued by NWS

Home | Current Version | Previous Version | Text Only | Print | Product List | Glossary Off
Versions: 1 2 3 4 5 6 7 8 9 10 11 12 13 14 15 16 17 18 19 20 21 22 23 24 25 26 27 28 29 30 31 32 33 34 35 36 37 38 39 40 41 42

000
FTUS43 KGRB 241100
TAFRHI
TAF
KRHI 241136Z 2412/2512 24014G22KT 4SM -SN BKN030 OVC050
      WS018/29035KT
      TEMPO 2412/2415 1 1/2SM -SN OVC018
     FM241600 28015G25KT 6SM -SN BLSN SCT020 BKN035
     FM250000 31011KT P6SM SCT035
     FM250400 30006KT P6SM SCT035 BKN150=

USA.gov is the U.S. government's official web portal to all federal, state and local government web resources and services.